createdAt,value
2022-10-07T00:01:11.212Z,8.43
2022-10-07T00:03:39.426Z,8.07
2022-10-07T00:06:10.160Z,9.03
2022-10-07T00:08:41.510Z,8.00
2022-10-07T00:11:11.596Z,8.43
2022-10-07T00:13:40.927Z,8.80
2022-10-07T00:16:11.098Z,9.03
2022-10-07T00:18:40.226Z,7.80
2022-10-07T00:21:11.271Z,9.07
2022-10-07T00:23:42.002Z,8.93
2022-10-07T00:26:11.807Z,7.90
2022-10-07T00:28:40.203Z,8.70
2022-10-07T00:31:10.332Z,9.03
2022-10-07T00:33:39.869Z,8.30
2022-10-07T00:36:09.323Z,9.63
2022-10-07T00:38:37.584Z,9.33
2022-10-07T00:41:08.518Z,9.50
2022-10-07T00:43:36.783Z,9.07
2022-10-07T00:46:09.192Z,8.97
2022-10-07T00:48:39.255Z,8.67
2022-10-07T00:51:09.521Z,8.07
2022-10-07T00:53:41.698Z,7.00
2022-10-07T00:56:12.348Z,8.20
2022-10-07T00:58:42.908Z,8.77
2022-10-07T01:01:11.392Z,8.13
2022-10-07T01:03:40.279Z,9.23
2022-10-07T01:06:10.344Z,8.53
2022-10-07T01:08:38.710Z,9.27
2022-10-07T01:11:18.422Z,9.60
2022-10-07T01:13:57.581Z,8.80
2022-10-07T01:16:30.776Z,9.07
2022-10-07T01:19:10.711Z,9.60
2022-10-07T01:21:43.444Z,9.47
2022-10-07T01:24:23.324Z,8.67
2022-10-07T01:27:01.192Z,9.33
2022-10-07T01:29:35.417Z,8.43
2022-10-07T01:32:09.443Z,9.43
2022-10-07T01:34:38.698Z,9.23
2022-10-07T01:37:09.426Z,9.40
2022-10-07T01:39:43.397Z,9.30
2022-10-07T01:42:13.399Z,9.23
2022-10-07T01:44:42.341Z,8.73
2022-10-07T01:47:10.511Z,9.00
2022-10-07T01:49:38.728Z,8.67
2022-10-07T01:52:23.520Z,9.73
2022-10-07T01:55:17.814Z,9.60
2022-10-07T01:57:59.286Z,9.70
2022-10-07T02:00:27.452Z,10.40
2022-10-07T02:03:11.228Z,10.00
2022-10-07T02:05:48.038Z,9.50
2022-10-07T02:08:27.687Z,9.73
2022-10-07T02:11:05.458Z,9.90
2022-10-07T02:13:41.020Z,9.63
2022-10-07T02:16:17.271Z,9.10
2022-10-07T02:18:50.729Z,9.23
2022-10-07T02:21:23.380Z,9.03
2022-10-07T02:23:52.183Z,8.93
2022-10-07T02:26:23.228Z,10.00
2022-10-07T02:28:55.027Z,9.10
2022-10-07T02:31:27.843Z,10.00
2022-10-07T02:33:58.073Z,10.60
2022-10-07T02:36:30.771Z,9.90
2022-10-07T02:39:00.315Z,9.97
2022-10-07T02:41:38.103Z,9.17
2022-10-07T02:44:17.467Z,10.10
2022-10-07T02:46:49.423Z,10.13
2022-10-07T02:49:19.096Z,10.27
2022-10-07T02:51:50.781Z,10.23
2022-10-07T02:54:23.354Z,9.40
2022-10-07T02:56:51.868Z,10.03
2022-10-07T02:59:23.120Z,10.63
2022-10-07T03:01:55.340Z,9.33
2022-10-07T03:04:24.050Z,9.87
2022-10-07T03:06:52.820Z,10.27
2022-10-07T03:09:21.216Z,10.37
2022-10-07T03:11:49.444Z,9.80
2022-10-07T03:14:17.669Z,10.40
2022-10-07T03:16:47.380Z,9.70
2022-10-07T03:19:15.607Z,10.10
2022-10-07T03:21:43.694Z,10.60
2022-10-07T03:24:11.987Z,10.57
2022-10-07T03:26:40.353Z,10.43
2022-10-07T03:29:10.337Z,11.93
2022-10-07T03:31:38.794Z,11.07
2022-10-07T03:34:08.639Z,11.13
2022-10-07T03:36:36.887Z,11.17
2022-10-07T03:39:05.241Z,12.17
2022-10-07T03:41:33.388Z,12.50
2022-10-07T03:44:01.507Z,12.37
2022-10-07T03:46:29.783Z,12.07
2022-10-07T03:48:58.499Z,12.50
2022-10-07T03:51:28.374Z,12.37
2022-10-07T03:53:57.583Z,12.20
2022-10-07T03:56:26.550Z,12.50
2022-10-07T03:58:55.510Z,12.67
2022-10-07T04:01:24.033Z,12.63
2022-10-07T04:03:52.700Z,12.00
2022-10-07T04:06:20.895Z,12.47
2022-10-07T04:08:53.089Z,12.87
2022-10-07T04:11:21.418Z,12.87
2022-10-07T04:13:49.635Z,13.07
2022-10-07T04:16:18.372Z,12.93
2022-10-07T04:18:47.393Z,13.40
2022-10-07T04:21:15.637Z,12.80
2022-10-07T04:23:43.908Z,12.43
2022-10-07T04:26:14.343Z,12.43
2022-10-07T04:28:43.664Z,13.67
2022-10-07T04:31:12.688Z,19.67
2022-10-07T04:33:41.915Z,13.60
2022-10-07T04:36:12.094Z,45.50
2022-10-07T04:38:42.576Z,16.03
2022-10-07T04:41:10.739Z,13.07
2022-10-07T04:43:40.250Z,14.23
2022-10-07T04:46:11.040Z,15.27
2022-10-07T04:48:39.195Z,14.27
2022-10-07T04:51:09.269Z,13.43
2022-10-07T04:53:38.591Z,13.17
2022-10-07T04:56:08.236Z,14.27
2022-10-07T04:58:39.237Z,14.33
2022-10-07T05:01:10.712Z,13.43
2022-10-07T05:03:40.176Z,13.93
2022-10-07T05:06:09.329Z,13.10
2022-10-07T05:08:37.483Z,14.17
2022-10-07T05:11:05.834Z,14.73
2022-10-07T05:13:34.960Z,14.77
2022-10-07T05:16:04.864Z,14.87
2022-10-07T05:18:35.738Z,14.53
2022-10-07T05:21:06.842Z,14.97
2022-10-07T05:23:36.796Z,13.80
2022-10-07T05:26:08.049Z,15.00
2022-10-07T05:28:36.742Z,14.73
2022-10-07T05:31:11.182Z,13.90
2022-10-07T05:33:40.232Z,14.20
2022-10-07T05:36:10.377Z,12.83
2022-10-07T05:38:38.845Z,14.83
2022-10-07T05:41:09.121Z,14.47
2022-10-07T05:43:42.158Z,14.43
2022-10-07T05:46:13.811Z,13.10
2022-10-07T05:48:43.092Z,14.60
2022-10-07T05:51:11.319Z,15.30
2022-10-07T05:53:41.361Z,13.37
2022-10-07T05:56:12.275Z,15.33
2022-10-07T05:58:40.698Z,13.43
2022-10-07T06:01:14.289Z,12.63
2022-10-07T06:03:44.375Z,13.17
2022-10-07T06:06:12.642Z,14.17
2022-10-07T06:08:40.920Z,14.17
2022-10-07T06:11:29.601Z,13.13
2022-10-07T06:13:57.843Z,14.33
2022-10-07T06:16:26.638Z,13.60
2022-10-07T06:18:56.547Z,13.77
2022-10-07T06:21:28.147Z,13.57
2022-10-07T06:23:57.993Z,12.30
2022-10-07T06:26:26.289Z,14.27
2022-10-07T06:28:54.492Z,12.27
2022-10-07T06:31:25.419Z,13.60
2022-10-07T06:33:55.307Z,13.00
2022-10-07T06:36:23.876Z,13.70
2022-10-07T06:38:54.045Z,13.87
2022-10-07T06:41:22.746Z,13.60
2022-10-07T06:43:51.170Z,14.03
2022-10-07T06:46:21.028Z,14.87
2022-10-07T06:48:50.616Z,14.70
2022-10-07T06:51:22.056Z,15.47
2022-10-07T06:53:53.686Z,15.37
2022-10-07T06:56:22.234Z,15.20
2022-10-07T06:58:50.898Z,14.63
2022-10-07T07:01:19.200Z,14.90
2022-10-07T07:03:47.559Z,16.10
2022-10-07T07:06:15.969Z,14.17
2022-10-07T07:08:46.237Z,15.33
2022-10-07T07:11:32.602Z,14.90
2022-10-07T07:14:02.060Z,14.97
2022-10-07T07:16:30.293Z,15.37
2022-10-07T07:19:00.067Z,13.43
2022-10-07T07:21:29.168Z,14.00
2022-10-07T07:23:59.288Z,13.83
2022-10-07T07:26:28.642Z,14.63
2022-10-07T07:28:59.411Z,14.60
2022-10-07T07:31:29.983Z,15.37
2022-10-07T07:34:00.715Z,14.80
2022-10-07T07:36:31.175Z,15.47
2022-10-07T07:39:02.527Z,15.33
2022-10-07T07:41:33.143Z,14.73
2022-10-07T07:44:03.870Z,13.90
2022-10-07T07:46:37.091Z,14.93
2022-10-07T07:49:05.999Z,13.83
2022-10-07T07:51:34.861Z,14.27
2022-10-07T07:54:04.805Z,13.67
2022-10-07T07:56:33.277Z,14.77
2022-10-07T07:59:02.177Z,15.43
2022-10-07T08:01:32.171Z,15.43
2022-10-07T08:04:00.901Z,14.30
2022-10-07T08:06:31.420Z,13.07
2022-10-07T08:08:59.727Z,13.60
2022-10-07T08:11:30.204Z,13.70
2022-10-07T08:13:58.371Z,13.73
2022-10-07T08:16:28.790Z,13.20
2022-10-07T08:18:58.899Z,13.60
2022-10-07T08:21:32.967Z,13.57
2022-10-07T08:24:03.930Z,13.90
2022-10-07T08:26:35.336Z,13.23
2022-10-07T08:29:03.596Z,14.60
2022-10-07T08:31:32.130Z,13.50
2022-10-07T08:34:04.010Z,12.70
2022-10-07T08:36:33.783Z,13.23
2022-10-07T08:39:02.727Z,12.60
2022-10-07T08:41:53.584Z,12.70
2022-10-07T08:44:27.475Z,13.30
2022-10-07T08:47:06.485Z,13.30
2022-10-07T08:49:45.072Z,15.17
2022-10-07T08:52:34.296Z,15.30
2022-10-07T08:55:03.839Z,15.80
2022-10-07T08:57:47.740Z,16.67
2022-10-07T09:00:19.667Z,16.10
2022-10-07T09:03:07.935Z,16.77
2022-10-07T09:05:41.506Z,15.97
2022-10-07T09:08:19.132Z,16.47
2022-10-07T09:10:50.661Z,15.67
2022-10-07T09:13:22.679Z,16.27
2022-10-07T09:15:54.604Z,16.57
2022-10-07T09:18:25.851Z,16.20
2022-10-07T09:20:56.183Z,16.43
2022-10-07T09:23:26.940Z,16.63
2022-10-07T09:25:55.144Z,16.97
2022-10-07T09:28:28.515Z,16.83
2022-10-07T09:30:57.043Z,16.60
2022-10-07T09:33:27.825Z,16.50
2022-10-07T09:35:57.915Z,17.80
2022-10-07T09:38:36.005Z,17.07
2022-10-07T09:41:19.784Z,17.53
2022-10-07T09:44:02.564Z,16.50
2022-10-07T09:46:46.505Z,18.40
2022-10-07T09:49:32.113Z,17.93
2022-10-07T09:52:02.111Z,18.77
2022-10-07T09:54:31.909Z,19.97
2022-10-07T09:57:03.104Z,18.87
2022-10-07T09:59:34.380Z,18.43
2022-10-07T10:02:15.598Z,18.73
2022-10-07T10:04:50.369Z,18.93
2022-10-07T10:07:21.257Z,18.07
2022-10-07T10:09:51.232Z,19.80
2022-10-07T10:12:21.258Z,16.83
2022-10-07T10:14:52.975Z,15.03
2022-10-07T10:17:28.917Z,14.20
2022-10-07T10:20:17.451Z,14.63
2022-10-07T10:22:45.841Z,17.27
2022-10-07T10:25:33.247Z,15.83
2022-10-07T10:28:08.543Z,15.77
2022-10-07T10:30:48.540Z,15.80
2022-10-07T10:33:27.969Z,11.77
2022-10-07T10:36:05.271Z,10.40
2022-10-07T10:38:37.514Z,11.37
2022-10-07T10:41:19.916Z,11.47
2022-10-07T10:44:08.976Z,10.63
2022-10-07T10:46:51.964Z,11.10
2022-10-07T10:49:27.646Z,10.63
2022-10-07T10:52:15.545Z,11.07
2022-10-07T10:54:58.385Z,14.70
2022-10-07T10:57:37.514Z,13.67
2022-10-07T11:00:12.824Z,11.67
2022-10-07T11:03:18.509Z,11.80
2022-10-07T11:05:48.426Z,11.00
2022-10-07T11:08:23.174Z,10.83
2022-10-07T11:10:58.864Z,11.87
2022-10-07T11:13:33.872Z,11.40
2022-10-07T11:16:08.333Z,11.50
2022-10-07T11:18:43.291Z,7.80
2022-10-07T11:21:18.235Z,8.77
2022-10-07T11:23:55.508Z,8.77
2022-10-07T11:26:32.389Z,9.43
2022-10-07T11:29:13.830Z,10.50
2022-10-07T11:31:47.124Z,9.87
2022-10-07T11:34:19.160Z,8.80
2022-10-07T11:36:56.209Z,8.03
2022-10-07T11:39:25.108Z,5.90
2022-10-07T11:41:59.307Z,4.93
2022-10-07T11:44:31.420Z,5.13
2022-10-07T11:47:03.639Z,7.27
2022-10-07T11:49:37.275Z,7.13
2022-10-07T11:52:07.586Z,7.53
2022-10-07T11:54:42.451Z,9.33
2022-10-07T11:57:21.779Z,8.93
2022-10-07T11:59:53.075Z,8.03
2022-10-07T12:02:44.433Z,8.37
2022-10-07T12:05:50.231Z,8.27
2022-10-07T12:08:34.791Z,8.10
2022-10-07T12:11:46.938Z,8.53
2022-10-07T12:14:32.271Z,8.03
2022-10-07T12:17:11.996Z,8.47
2022-10-07T12:19:40.195Z,7.67
2022-10-07T12:22:19.056Z,7.60
2022-10-07T12:25:29.280Z,8.17
2022-10-07T12:27:58.113Z,7.60
2022-10-07T12:30:42.339Z,8.17
2022-10-07T12:33:17.927Z,8.03
2022-10-07T12:35:54.199Z,8.23
2022-10-07T12:38:32.011Z,7.97
2022-10-07T12:41:25.924Z,7.90
2022-10-07T12:44:00.931Z,7.83
2022-10-07T12:46:34.801Z,7.50
2022-10-07T12:49:05.701Z,8.90
2022-10-07T12:51:39.525Z,7.63
2022-10-07T12:54:16.078Z,7.20
2022-10-07T12:56:46.389Z,6.70
2022-10-07T12:59:58.150Z,6.40
2022-10-07T13:03:03.999Z,6.43
2022-10-07T13:06:07.223Z,5.37
2022-10-07T13:09:16.181Z,6.67
2022-10-07T13:12:07.821Z,7.93
2022-10-07T13:14:41.694Z,8.60
2022-10-07T13:17:28.357Z,16.27
2022-10-07T13:20:07.756Z,9.23
2022-10-07T13:22:36.304Z,7.87
2022-10-07T13:25:08.425Z,8.33
2022-10-07T13:27:41.502Z,7.90
2022-10-07T13:30:38.913Z,7.77
2022-10-07T13:33:15.665Z,6.70
2022-10-07T13:35:43.973Z,7.13
2022-10-07T13:38:25.581Z,7.37
2022-10-07T13:41:03.456Z,6.90
2022-10-07T13:43:34.461Z,7.13
2022-10-07T13:46:05.289Z,7.30
2022-10-07T13:48:35.551Z,7.20
2022-10-07T13:51:03.940Z,7.50
2022-10-07T13:53:35.074Z,7.37
2022-10-07T13:56:23.533Z,8.27
2022-10-07T13:58:55.207Z,8.13
2022-10-07T14:01:27.524Z,8.90
2022-10-07T14:04:03.882Z,8.17
2022-10-07T14:06:39.101Z,7.73
2022-10-07T14:09:18.633Z,7.70
2022-10-07T14:11:47.953Z,8.87
2022-10-07T14:14:23.432Z,9.27
2022-10-07T14:16:59.327Z,8.40
2022-10-07T14:19:32.364Z,8.90
2022-10-07T14:22:03.436Z,9.13
2022-10-07T14:24:32.503Z,9.40
2022-10-07T14:27:00.653Z,8.70
2022-10-07T14:29:37.859Z,8.87
2022-10-07T14:32:32.271Z,9.37
2022-10-07T14:35:22.923Z,8.90
2022-10-07T14:37:51.517Z,8.97
2022-10-07T14:40:23.219Z,9.30
2022-10-07T14:42:53.980Z,7.30
2022-10-07T14:45:23.866Z,8.30
2022-10-07T14:47:52.465Z,7.73
2022-10-07T14:50:20.584Z,8.70
2022-10-07T14:52:51.927Z,8.60
2022-10-07T14:55:24.437Z,8.57
2022-10-07T14:57:52.929Z,8.37
2022-10-07T15:00:24.777Z,9.77
2022-10-07T15:02:53.241Z,9.33
2022-10-07T15:05:22.697Z,9.30
2022-10-07T15:07:51.435Z,8.40
2022-10-07T15:10:21.479Z,8.57
2022-10-07T15:12:49.935Z,9.30
2022-10-07T15:15:18.670Z,9.87
2022-10-07T15:17:48.405Z,8.93
2022-10-07T15:20:17.542Z,7.93
2022-10-07T15:22:46.360Z,8.13
2022-10-07T15:25:15.761Z,8.87
2022-10-07T15:27:44.144Z,8.37
2022-10-07T15:30:13.746Z,7.87
2022-10-07T15:32:41.943Z,8.50
2022-10-07T15:35:11.845Z,7.53
2022-10-07T15:37:39.996Z,8.80
2022-10-07T15:40:09.489Z,9.23
2022-10-07T15:42:37.733Z,8.20
2022-10-07T15:45:06.676Z,7.67
2022-10-07T15:47:34.752Z,7.30
2022-10-07T15:50:03.059Z,8.50
2022-10-07T15:52:32.855Z,8.77
2022-10-07T15:55:07.747Z,8.83
2022-10-07T15:57:36.720Z,8.10
2022-10-07T16:00:05.799Z,6.83
2022-10-07T16:02:36.176Z,7.07
2022-10-07T16:05:04.878Z,7.80
2022-10-07T16:07:34.471Z,7.37
2022-10-07T16:10:02.680Z,7.00
2022-10-07T16:12:30.926Z,7.43
2022-10-07T16:14:59.060Z,6.60
2022-10-07T16:17:27.682Z,6.30
2022-10-07T16:19:56.048Z,5.93
2022-10-07T16:22:24.463Z,7.60
2022-10-07T16:24:55.546Z,6.67
2022-10-07T16:27:44.370Z,6.77
2022-10-07T16:30:30.832Z,9.40
2022-10-07T16:32:58.889Z,10.57
2022-10-07T16:35:30.035Z,7.33
2022-10-07T16:37:58.256Z,5.70
2022-10-07T16:40:27.863Z,5.50
2022-10-07T16:42:57.613Z,5.47
2022-10-07T16:45:25.772Z,5.27
2022-10-07T16:47:54.355Z,6.10
2022-10-07T16:50:22.574Z,6.87
2022-10-07T16:52:50.740Z,6.10
2022-10-07T16:55:18.899Z,6.97
2022-10-07T16:57:49.835Z,6.73
2022-10-07T17:00:18.311Z,6.80
2022-10-07T17:02:46.440Z,6.50
2022-10-07T17:05:14.711Z,7.40
2022-10-07T17:07:43.071Z,7.20
2022-10-07T17:10:11.591Z,7.90
2022-10-07T17:12:39.773Z,7.77
2022-10-07T17:15:10.173Z,9.67
2022-10-07T17:17:38.410Z,10.03
2022-10-07T17:20:08.384Z,9.60
2022-10-07T17:22:36.609Z,8.40
2022-10-07T17:25:05.130Z,8.43
2022-10-07T17:27:33.268Z,39.80
2022-10-07T17:30:01.694Z,26.83
2022-10-07T17:32:31.222Z,17.40
2022-10-07T17:34:59.383Z,8.30
2022-10-07T17:37:27.814Z,7.77
2022-10-07T17:39:56.466Z,7.17
2022-10-07T17:42:24.613Z,7.87
2022-10-07T17:44:52.824Z,7.33
2022-10-07T17:47:20.932Z,9.27
2022-10-07T17:49:50.508Z,11.50
2022-10-07T17:52:18.753Z,11.73
2022-10-07T17:54:47.507Z,13.23
2022-10-07T17:57:16.255Z,9.93
2022-10-07T17:59:44.381Z,8.10
2022-10-07T18:02:12.557Z,7.33
2022-10-07T18:04:40.804Z,6.93
2022-10-07T18:07:10.355Z,6.30
2022-10-07T18:09:39.895Z,5.63
2022-10-07T18:12:25.131Z,6.67
2022-10-07T18:15:10.873Z,6.37
2022-10-07T18:17:39.012Z,6.10
2022-10-07T18:20:12.742Z,6.43
2022-10-07T18:22:45.175Z,6.30
2022-10-07T18:25:13.770Z,6.43
2022-10-07T18:27:43.452Z,6.57
2022-10-07T18:30:12.358Z,12.10
2022-10-07T18:32:40.578Z,14.37
2022-10-07T18:35:09.449Z,6.43
2022-10-07T18:37:38.115Z,6.63
2022-10-07T18:40:08.754Z,6.10
2022-10-07T18:42:39.082Z,6.50
2022-10-07T18:45:08.007Z,6.33
2022-10-07T18:47:36.112Z,6.57
2022-10-07T18:50:04.425Z,6.97
2022-10-07T18:52:32.661Z,6.80
2022-10-07T18:55:00.814Z,6.87
2022-10-07T18:57:30.384Z,6.63
2022-10-07T18:59:58.507Z,7.73
2022-10-07T19:02:26.764Z,8.03
2022-10-07T19:04:54.982Z,9.10
2022-10-07T19:07:23.141Z,7.93
2022-10-07T19:09:51.319Z,6.97
2022-10-07T19:12:36.861Z,8.03
2022-10-07T19:15:07.224Z,7.20
2022-10-07T19:17:35.407Z,6.83
2022-10-07T19:20:04.776Z,7.30
2022-10-07T19:22:32.819Z,7.70
2022-10-07T19:25:18.338Z,7.27
2022-10-07T19:27:47.071Z,7.07
2022-10-07T19:30:16.919Z,6.90
2022-10-07T19:32:45.148Z,7.80
2022-10-07T19:35:13.226Z,7.97
2022-10-07T19:37:42.432Z,7.70
2022-10-07T19:40:11.287Z,7.60
2022-10-07T19:42:39.434Z,7.20
2022-10-07T19:45:09.324Z,8.03
2022-10-07T19:47:38.832Z,14.13
2022-10-07T19:50:07.735Z,15.10
2022-10-07T19:52:35.944Z,11.07
2022-10-07T19:55:04.145Z,7.23
2022-10-07T19:57:32.429Z,6.07
2022-10-07T20:00:00.657Z,6.43
2022-10-07T20:02:28.839Z,6.97
2022-10-07T20:04:58.402Z,6.47
2022-10-07T20:07:26.611Z,6.37
2022-10-07T20:09:54.677Z,6.00
2022-10-07T20:12:22.781Z,6.00
2022-10-07T20:14:51.388Z,6.30
2022-10-07T20:17:20.082Z,6.23
2022-10-07T20:19:48.361Z,5.87
2022-10-07T20:22:18.129Z,5.53
2022-10-07T20:24:46.363Z,6.03
2022-10-07T20:27:14.615Z,6.50
2022-10-07T20:29:56.691Z,6.30
2022-10-07T20:32:25.264Z,6.60
2022-10-07T20:34:53.626Z,6.37
2022-10-07T20:37:23.293Z,6.13
2022-10-07T20:40:09.130Z,6.50
2022-10-07T20:42:37.260Z,6.73
2022-10-07T20:45:06.092Z,6.50
2022-10-07T20:47:36.328Z,6.83
2022-10-07T20:50:04.892Z,6.93
2022-10-07T20:52:36.919Z,7.07
2022-10-07T20:55:07.843Z,6.33
2022-10-07T20:57:37.990Z,7.10
2022-10-07T21:00:09.337Z,6.80
2022-10-07T21:02:37.535Z,6.00
2022-10-07T21:05:07.953Z,6.80
2022-10-07T21:07:37.632Z,6.70
2022-10-07T21:10:06.499Z,6.37
2022-10-07T21:12:34.652Z,6.30
2022-10-07T21:15:04.177Z,6.23
2022-10-07T21:17:32.388Z,6.17
2022-10-07T21:20:00.581Z,6.30
2022-10-07T21:22:29.069Z,7.40
2022-10-07T21:24:58.712Z,6.60
2022-10-07T21:27:26.890Z,6.77
2022-10-07T21:29:56.124Z,6.73
2022-10-07T21:32:24.268Z,6.17
2022-10-07T21:34:53.584Z,5.97
2022-10-07T21:37:21.817Z,6.73
2022-10-07T21:39:49.999Z,7.17
2022-10-07T21:42:19.616Z,6.63
2022-10-07T21:44:48.051Z,5.80
2022-10-07T21:47:16.256Z,5.93
2022-10-07T21:49:45.351Z,6.27
2022-10-07T21:52:13.534Z,6.03
2022-10-07T21:54:41.787Z,6.00
2022-10-07T21:57:10.008Z,5.77
2022-10-07T21:59:39.574Z,6.33
2022-10-07T22:02:08.499Z,6.37
2022-10-07T22:04:36.714Z,5.93
2022-10-07T22:07:21.984Z,6.07
2022-10-07T22:09:50.140Z,6.03
2022-10-07T22:12:18.564Z,6.53
2022-10-07T22:14:48.100Z,6.07
2022-10-07T22:17:16.251Z,5.70
2022-10-07T22:19:44.536Z,6.00
2022-10-07T22:22:12.987Z,6.63
2022-10-07T22:24:41.188Z,6.33
2022-10-07T22:27:09.316Z,6.23
2022-10-07T22:29:38.678Z,6.53
2022-10-07T22:32:08.203Z,6.10
2022-10-07T22:34:53.808Z,5.27
2022-10-07T22:37:21.942Z,6.33
2022-10-07T22:39:50.185Z,5.60
2022-10-07T22:42:18.683Z,6.57
2022-10-07T22:44:46.840Z,6.03
2022-10-07T22:47:16.451Z,6.30
2022-10-07T22:49:44.849Z,6.63
2022-10-07T22:52:13.022Z,6.70
2022-10-07T22:54:41.315Z,6.50
2022-10-07T22:57:09.455Z,5.93
2022-10-07T22:59:38.842Z,6.47
2022-10-07T23:02:07.080Z,5.80
2022-10-07T23:04:36.605Z,5.90
2022-10-07T23:07:04.744Z,6.53
2022-10-07T23:09:32.923Z,6.53
2022-10-07T23:12:01.082Z,6.43
2022-10-07T23:14:29.246Z,5.80
2022-10-07T23:16:57.401Z,6.13
2022-10-07T23:19:25.868Z,6.47
2022-10-07T23:21:55.952Z,5.90
2022-10-07T23:24:24.067Z,6.20
2022-10-07T23:26:52.296Z,6.23
2022-10-07T23:29:20.632Z,6.00
2022-10-07T23:31:48.763Z,5.83
2022-10-07T23:34:16.869Z,6.07
2022-10-07T23:36:45.278Z,5.93
2022-10-07T23:39:14.974Z,6.20
2022-10-07T23:41:43.204Z,6.07
2022-10-07T23:44:11.268Z,6.30
2022-10-07T23:46:39.652Z,6.50
2022-10-07T23:49:07.832Z,5.83
2022-10-07T23:51:35.984Z,6.30
2022-10-07T23:54:05.253Z,5.93
2022-10-07T23:56:34.863Z,6.57
2022-10-07T23:59:03.891Z,6.30
